sensor_id;sensor_type;location;lat;lon;timestamp;pressure;altitude;pressure_sealevel;temperature;humidity
85319;BME280;75722;49.004;12.120;2024-02-14T00:02:09;98297.81;;;-0.92;81.26
85319;BME280;75722;49.004;12.120;2024-02-14T00:04:34;98288.16;;;-0.93;81.28
85319;BME280;75722;49.004;12.120;2024-02-14T00:06:59;98297.06;;;-0.94;81.03
85319;BME280;75722;49.004;12.120;2024-02-14T00:09:25;98298.69;;;-0.92;81.00
85319;BME280;75722;49.004;12.120;2024-02-14T00:11:50;98305.59;;;-0.89;81.16
85319;BME280;75722;49.004;12.120;2024-02-14T00:14:16;98299.41;;;-0.89;81.11
85319;BME280;75722;49.004;12.120;2024-02-14T00:16:41;98305.69;;;-0.91;81.15
85319;BME280;75722;49.004;12.120;2024-02-14T00:19:07;98294.94;;;-0.89;80.64
85319;BME280;75722;49.004;12.120;2024-02-14T00:21:32;98295.16;;;-0.92;81.03
85319;BME280;75722;49.004;12.120;2024-02-14T00:23:59;98289.63;;;-0.89;81.40
85319;BME280;75722;49.004;12.120;2024-02-14T00:26:24;98288.16;;;-0.93;81.74
85319;BME280;75722;49.004;12.120;2024-02-14T00:28:50;98298.25;;;-0.98;81.30
85319;BME280;75722;49.004;12.120;2024-02-14T00:31:16;98301.16;;;-1.01;81.16
85319;BME280;75722;49.004;12.120;2024-02-14T00:33:41;98301.78;;;-0.98;81.20
85319;BME280;75722;49.004;12.120;2024-02-14T00:36:06;98303.56;;;-0.98;81.64
85319;BME280;75722;49.004;12.120;2024-02-14T00:38:32;98299.22;;;-0.99;81.21
85319;BME280;75722;49.004;12.120;2024-02-14T00:40:57;98292.22;;;-1.00;81.47
85319;BME280;75722;49.004;12.120;2024-02-14T00:43:23;98303.28;;;-1.07;81.42
85319;BME280;75722;49.004;12.120;2024-02-14T00:45:48;98299.88;;;-1.09;80.99
85319;BME280;75722;49.004;12.120;2024-02-14T00:48:13;98303.72;;;-1.13;81.17
85319;BME280;75722;49.004;12.120;2024-02-14T00:50:39;98299.06;;;-1.22;81.03
85319;BME280;75722;49.004;12.120;2024-02-14T00:53:04;98303.09;;;-1.30;81.27
85319;BME280;75722;49.004;12.120;2024-02-14T00:55:30;98306.41;;;-1.26;81.23
85319;BME280;75722;49.004;12.120;2024-02-14T00:57:55;98306.63;;;-1.29;81.05
85319;BME280;75722;49.004;12.120;2024-02-14T01:00:20;98307.78;;;-1.33;81.57
85319;BME280;75722;49.004;12.120;2024-02-14T01:02:46;98306.53;;;-1.40;81.87
85319;BME280;75722;49.004;12.120;2024-02-14T01:05:11;98309.38;;;-1.44;81.81
85319;BME280;75722;49.004;12.120;2024-02-14T01:07:36;98314.19;;;-1.49;81.67
85319;BME280;75722;49.004;12.120;2024-02-14T01:10:02;98312.69;;;-1.53;81.69
85319;BME280;75722;49.004;12.120;2024-02-14T01:12:28;98317.56;;;-1.60;81.43
85319;BME280;75722;49.004;12.120;2024-02-14T01:14:55;98315.34;;;-1.53;81.43
85319;BME280;75722;49.004;12.120;2024-02-14T01:17:20;98313.09;;;-1.46;81.86
85319;BME280;75722;49.004;12.120;2024-02-14T01:19:46;98310.56;;;-1.35;81.31
85319;BME280;75722;49.004;12.120;2024-02-14T01:22:11;98310.75;;;-1.25;81.80
85319;BME280;75722;49.004;12.120;2024-02-14T01:24:36;98305.84;;;-1.18;81.24
85319;BME280;75722;49.004;12.120;2024-02-14T01:27:02;98306.50;;;-1.14;81.82
85319;BME280;75722;49.004;12.120;2024-02-14T01:29:28;98301.91;;;-1.12;81.24
85319;BME280;75722;49.004;12.120;2024-02-14T01:31:54;98294.22;;;-1.04;81.11
85319;BME280;75722;49.004;12.120;2024-02-14T01:34:20;98304.31;;;-0.96;81.21
85319;BME280;75722;49.004;12.120;2024-02-14T01:36:46;98303.66;;;-0.87;80.98
85319;BME280;75722;49.004;12.120;2024-02-14T01:39:11;98304.69;;;-0.76;81.39
85319;BME280;75722;49.004;12.120;2024-02-14T01:41:37;98305.94;;;-0.69;81.11
85319;BME280;75722;49.004;12.120;2024-02-14T01:44:04;98309.09;;;-0.64;80.27
85319;BME280;75722;49.004;12.120;2024-02-14T01:46:29;98307.59;;;-0.55;80.31
85319;BME280;75722;49.004;12.120;2024-02-14T01:48:55;98300.00;;;-0.48;79.68
85319;BME280;75722;49.004;12.120;2024-02-14T01:51:22;98305.47;;;-0.39;80.17
85319;BME280;75722;49.004;12.120;2024-02-14T01:53:49;98301.19;;;-0.28;79.50
85319;BME280;75722;49.004;12.120;2024-02-14T01:56:16;98299.03;;;-0.23;79.81
85319;BME280;75722;49.004;12.120;2024-02-14T01:58:41;98310.31;;;-0.19;79.61
85319;BME280;75722;49.004;12.120;2024-02-14T02:01:08;98312.63;;;-0.15;79.42
85319;BME280;75722;49.004;12.120;2024-02-14T02:03:35;98317.34;;;-0.07;79.05
85319;BME280;75722;49.004;12.120;2024-02-14T02:06:05;98312.66;;;-0.03;78.66
85319;BME280;75722;49.004;12.120;2024-02-14T02:08:31;98311.34;;;0.03;78.84
85319;BME280;75722;49.004;12.120;2024-02-14T02:10:57;98304.19;;;0.03;78.49
85319;BME280;75722;49.004;12.120;2024-02-14T02:13:23;98312.19;;;0.03;78.13
85319;BME280;75722;49.004;12.120;2024-02-14T02:15:48;98309.63;;;0.02;78.42
85319;BME280;75722;49.004;12.120;2024-02-14T02:18:14;98312.56;;;-0.02;78.64
85319;BME280;75722;49.004;12.120;2024-02-14T02:20:40;98306.81;;;-0.08;78.99
85319;BME280;75722;49.004;12.120;2024-02-14T02:23:09;98306.94;;;-0.10;78.78
85319;BME280;75722;49.004;12.120;2024-02-14T02:25:34;98308.53;;;-0.07;78.48
85319;BME280;75722;49.004;12.120;2024-02-14T02:28:00;98313.75;;;-0.06;78.79
85319;BME280;75722;49.004;12.120;2024-02-14T02:30:25;98308.44;;;-0.06;78.97
85319;BME280;75722;49.004;12.120;2024-02-14T02:32:51;98296.53;;;-0.13;78.64
85319;BME280;75722;49.004;12.120;2024-02-14T02:35:17;98305.50;;;-0.03;78.47
85319;BME280;75722;49.004;12.120;2024-02-14T02:37:46;98298.72;;;-0.07;79.08
85319;BME280;75722;49.004;12.120;2024-02-14T02:40:13;98298.22;;;-0.12;78.63
85319;BME280;75722;49.004;12.120;2024-02-14T02:42:40;98304.88;;;-0.18;78.95
85319;BME280;75722;49.004;12.120;2024-02-14T02:45:05;98301.22;;;-0.17;79.10
85319;BME280;75722;49.004;12.120;2024-02-14T02:47:34;98302.19;;;-0.18;78.59
85319;BME280;75722;49.004;12.120;2024-02-14T02:49:59;98300.91;;;-0.12;79.25
85319;BME280;75722;49.004;12.120;2024-02-14T02:52:26;98300.16;;;-0.14;79.05
85319;BME280;75722;49.004;12.120;2024-02-14T02:54:53;98296.25;;;-0.21;79.77
85319;BME280;75722;49.004;12.120;2024-02-14T02:57:18;98296.50;;;-0.24;79.71
85319;BME280;75722;49.004;12.120;2024-02-14T02:59:44;98295.03;;;-0.29;79.94
85319;BME280;75722;49.004;12.120;2024-02-14T03:02:11;98307.09;;;-0.36;80.44
85319;BME280;75722;49.004;12.120;2024-02-14T03:04:37;98305.44;;;-0.50;80.61
85319;BME280;75722;49.004;12.120;2024-02-14T03:07:03;98306.72;;;-0.56;80.73
85319;BME280;75722;49.004;12.120;2024-02-14T03:09:32;98306.63;;;-0.54;80.86
85319;BME280;75722;49.004;12.120;2024-02-14T03:11:57;98307.19;;;-0.62;81.06
85319;BME280;75722;49.004;12.120;2024-02-14T03:14:23;98310.53;;;-0.47;81.13
85319;BME280;75722;49.004;12.120;2024-02-14T03:16:48;98309.44;;;-0.44;81.57
85319;BME280;75722;49.004;12.120;2024-02-14T03:19:14;98305.91;;;-0.32;81.24
85319;BME280;75722;49.004;12.120;2024-02-14T03:21:39;98307.38;;;-0.28;81.24
85319;BME280;75722;49.004;12.120;2024-02-14T03:24:05;98317.03;;;-0.27;80.90
85319;BME280;75722;49.004;12.120;2024-02-14T03:26:33;98311.59;;;-0.25;80.95
85319;BME280;75722;49.004;12.120;2024-02-14T03:28:59;98311.50;;;-0.23;80.78
85319;BME280;75722;49.004;12.120;2024-02-14T03:31:25;98313.94;;;-0.20;81.08
85319;BME280;75722;49.004;12.120;2024-02-14T03:33:51;98311.16;;;-0.19;80.58
85319;BME280;75722;49.004;12.120;2024-02-14T03:36:16;98305.25;;;-0.11;80.29
85319;BME280;75722;49.004;12.120;2024-02-14T03:38:42;98314.69;;;-0.07;80.53
85319;BME280;75722;49.004;12.120;2024-02-14T03:41:07;98308.78;;;-0.10;80.74
85319;BME280;75722;49.004;12.120;2024-02-14T03:43:32;98308.88;;;-0.12;80.06
85319;BME280;75722;49.004;12.120;2024-02-14T03:45:58;98309.00;;;-0.14;80.92
85319;BME280;75722;49.004;12.120;2024-02-14T03:48:23;98306.09;;;-0.10;80.35
85319;BME280;75722;49.004;12.120;2024-02-14T03:50:50;98309.25;;;-0.05;79.96
85319;BME280;75722;49.004;12.120;2024-02-14T03:53:16;98307.94;;;0.01;80.30
85319;BME280;75722;49.004;12.120;2024-02-14T03:55:42;98309.25;;;-0.05;80.04
85319;BME280;75722;49.004;12.120;2024-02-14T03:58:07;98312.91;;;-0.06;80.16
85319;BME280;75722;49.004;12.120;2024-02-14T04:00:34;98310.94;;;-0.04;80.87
85319;BME280;75722;49.004;12.120;2024-02-14T04:03:01;98312.66;;;-0.03;80.31
85319;BME280;75722;49.004;12.120;2024-02-14T04:05:28;98315.94;;;0.01;80.47
85319;BME280;75722;49.004;12.120;2024-02-14T04:07:54;98316.56;;;0.04;80.41
85319;BME280;75722;49.004;12.120;2024-02-14T04:10:20;98314.63;;;0.06;80.16
85319;BME280;75722;49.004;12.120;2024-02-14T04:12:46;98310.97;;;0.07;80.41
85319;BME280;75722;49.004;12.120;2024-02-14T04:15:11;98317.28;;;0.06;80.41
85319;BME280;75722;49.004;12.120;2024-02-14T04:17:37;98311.97;;;0.06;81.00
85319;BME280;75722;49.004;12.120;2024-02-14T04:20:03;98313.19;;;0.14;80.66
85319;BME280;75722;49.004;12.120;2024-02-14T04:22:29;98317.91;;;0.10;80.28
85319;BME280;75722;49.004;12.120;2024-02-14T04:24:54;98317.91;;;0.10;80.68
85319;BME280;75722;49.004;12.120;2024-02-14T04:27:19;98324.44;;;0.17;80.77
85319;BME280;75722;49.004;12.120;2024-02-14T04:29:46;98319.50;;;0.12;80.48
85319;BME280;75722;49.004;12.120;2024-02-14T04:32:11;98315.00;;;0.13;80.61
85319;BME280;75722;49.004;12.120;2024-02-14T04:34:37;98313.31;;;0.12;80.87
85319;BME280;75722;49.004;12.120;2024-02-14T04:37:04;98319.59;;;0.11;80.38
85319;BME280;75722;49.004;12.120;2024-02-14T04:39:38;98319.84;;;0.08;80.90
85319;BME280;75722;49.004;12.120;2024-02-14T04:42:04;98320.81;;;0.07;81.27
85319;BME280;75722;49.004;12.120;2024-02-14T04:44:30;98330.47;;;0.08;80.80
85319;BME280;75722;49.004;12.120;2024-02-14T04:46:56;98341.28;;;0.18;80.67
85319;BME280;75722;49.004;12.120;2024-02-14T04:49:23;98329.50;;;0.09;80.93
85319;BME280;75722;49.004;12.120;2024-02-14T04:51:48;98335.59;;;0.11;80.96
85319;BME280;75722;49.004;12.120;2024-02-14T04:54:13;98335.69;;;0.09;80.67
85319;BME280;75722;49.004;12.120;2024-02-14T04:56:41;98330.03;;;0.14;80.53
85319;BME280;75722;49.004;12.120;2024-02-14T04:59:07;98328.19;;;0.15;80.76
85319;BME280;75722;49.004;12.120;2024-02-14T05:01:34;98330.53;;;0.19;80.71
85319;BME280;75722;49.004;12.120;2024-02-14T05:03:59;98340.44;;;0.17;80.70
85319;BME280;75722;49.004;12.120;2024-02-14T05:06:24;98332.19;;;0.09;80.61
85319;BME280;75722;49.004;12.120;2024-02-14T05:08:50;98335.66;;;-0.02;80.90
85319;BME280;75722;49.004;12.120;2024-02-14T05:11:17;98338.31;;;-0.02;81.03
85319;BME280;75722;49.004;12.120;2024-02-14T05:13:42;98331.59;;;-0.19;81.06
85319;BME280;75722;49.004;12.120;2024-02-14T05:16:08;98334.19;;;-0.06;81.70
85319;BME280;75722;49.004;12.120;2024-02-14T05:18:38;98341.75;;;-0.24;81.94
85319;BME280;75722;49.004;12.120;2024-02-14T05:21:07;98334.69;;;-0.26;81.56
85319;BME280;75722;49.004;12.120;2024-02-14T05:23:33;98338.78;;;-0.33;81.33
85319;BME280;75722;49.004;12.120;2024-02-14T05:25:59;98338.22;;;-0.49;81.66
85319;BME280;75722;49.004;12.120;2024-02-14T05:28:24;98334.84;;;-0.52;82.22
85319;BME280;75722;49.004;12.120;2024-02-14T05:30:51;98329.09;;;-0.58;82.42
85319;BME280;75722;49.004;12.120;2024-02-14T05:33:16;98326.78;;;-0.63;81.86
85319;BME280;75722;49.004;12.120;2024-02-14T05:35:43;98339.75;;;-0.71;82.65
85319;BME280;75722;49.004;12.120;2024-02-14T05:38:09;98330.84;;;-0.70;82.49
85319;BME280;75722;49.004;12.120;2024-02-14T05:40:34;98339.16;;;-0.75;82.35
85319;BME280;75722;49.004;12.120;2024-02-14T05:43:01;98337.78;;;-0.81;82.25
85319;BME280;75722;49.004;12.120;2024-02-14T05:45:26;98327.03;;;-0.79;82.19
85319;BME280;75722;49.004;12.120;2024-02-14T05:47:53;98336.72;;;-0.91;82.78
85319;BME280;75722;49.004;12.120;2024-02-14T05:50:18;98334.63;;;-0.86;82.64
85319;BME280;75722;49.004;12.120;2024-02-14T05:52:44;98333.47;;;-0.95;83.14
85319;BME280;75722;49.004;12.120;2024-02-14T05:55:09;98341.94;;;-0.89;82.85
85319;BME280;75722;49.004;12.120;2024-02-14T05:57:34;98333.00;;;-0.88;83.18
85319;BME280;75722;49.004;12.120;2024-02-14T06:00:00;98342.59;;;-0.86;82.74
85319;BME280;75722;49.004;12.120;2024-02-14T06:02:25;98345.34;;;-0.74;83.14
85319;BME280;75722;49.004;12.120;2024-02-14T06:04:51;98346.34;;;-0.64;82.80
85319;BME280;75722;49.004;12.120;2024-02-14T06:07:16;98345.50;;;-0.65;82.95
85319;BME280;75722;49.004;12.120;2024-02-14T06:09:41;98341.19;;;-0.54;83.12
85319;BME280;75722;49.004;12.120;2024-02-14T06:12:07;98332.28;;;-0.53;83.00
85319;BME280;75722;49.004;12.120;2024-02-14T06:14:32;98344.63;;;-0.52;82.32
85319;BME280;75722;49.004;12.120;2024-02-14T06:16:59;98354.19;;;-0.49;82.71
85319;BME280;75722;49.004;12.120;2024-02-14T06:19:24;98359.41;;;-0.48;82.98
85319;BME280;75722;49.004;12.120;2024-02-14T06:21:50;98354.06;;;-0.48;82.16
85319;BME280;75722;49.004;12.120;2024-02-14T06:24:15;98367.88;;;-0.43;82.51
85319;BME280;75722;49.004;12.120;2024-02-14T06:26:40;98365.31;;;-0.44;82.48
85319;BME280;75722;49.004;12.120;2024-02-14T06:29:05;98376.50;;;-0.39;82.33
85319;BME280;75722;49.004;12.120;2024-02-14T06:31:31;98374.75;;;-0.27;82.14
85319;BME280;75722;49.004;12.120;2024-02-14T06:33:56;98381.47;;;-0.10;81.69
85319;BME280;75722;49.004;12.120;2024-02-14T06:36:21;98383.00;;;0.06;81.35
85319;BME280;75722;49.004;12.120;2024-02-14T06:38:47;98387.06;;;0.23;81.00
85319;BME280;75722;49.004;12.120;2024-02-14T06:41:12;98396.97;;;0.45;79.91
85319;BME280;75722;49.004;12.120;2024-02-14T06:43:38;98401.81;;;0.51;79.02
85319;BME280;75722;49.004;12.120;2024-02-14T06:46:05;98392.59;;;0.44;78.86
85319;BME280;75722;49.004;12.120;2024-02-14T06:48:31;98398.44;;;0.49;79.23
85319;BME280;75722;49.004;12.120;2024-02-14T06:50:56;98394.28;;;0.45;79.42
85319;BME280;75722;49.004;12.120;2024-02-14T06:53:22;98400.00;;;0.52;78.49
85319;BME280;75722;49.004;12.120;2024-02-14T06:55:47;98402.09;;;0.60;78.66
85319;BME280;75722;49.004;12.120;2024-02-14T06:58:12;98398.56;;;0.59;78.19
85319;BME280;75722;49.004;12.120;2024-02-14T07:00:38;98397.44;;;0.50;78.48
85319;BME280;75722;49.004;12.120;2024-02-14T07:03:03;98408.88;;;0.64;78.37
85319;BME280;75722;49.004;12.120;2024-02-14T07:05:29;98402.81;;;0.62;78.10
85319;BME280;75722;49.004;12.120;2024-02-14T07:07:55;98415.69;;;0.68;78.16
85319;BME280;75722;49.004;12.120;2024-02-14T07:10:20;98401.84;;;0.74;77.38
85319;BME280;75722;49.004;12.120;2024-02-14T07:12:45;98395.59;;;0.87;77.86
85319;BME280;75722;49.004;12.120;2024-02-14T07:15:11;98397.88;;;0.92;78.03
85319;BME280;75722;49.004;12.120;2024-02-14T07:17:36;98403.13;;;1.05;77.49
85319;BME280;75722;49.004;12.120;2024-02-14T07:20:04;98385.41;;;1.15;77.51
85319;BME280;75722;49.004;12.120;2024-02-14T07:22:29;98396.94;;;1.27;76.74
85319;BME280;75722;49.004;12.120;2024-02-14T07:24:58;98399.84;;;1.47;76.10
85319;BME280;75722;49.004;12.120;2024-02-14T07:27:23;98391.31;;;1.64;76.96
85319;BME280;75722;49.004;12.120;2024-02-14T07:29:49;98380.47;;;1.77;76.93
85319;BME280;75722;49.004;12.120;2024-02-14T07:32:15;98399.81;;;1.70;75.32
85319;BME280;75722;49.004;12.120;2024-02-14T07:34:42;98396.91;;;1.61;75.31
85319;BME280;75722;49.004;12.120;2024-02-14T07:37:07;98400.19;;;1.65;74.43
85319;BME280;75722;49.004;12.120;2024-02-14T07:39:33;98404.31;;;1.58;75.51
85319;BME280;75722;49.004;12.120;2024-02-14T07:42:01;98407.69;;;1.71;75.33
85319;BME280;75722;49.004;12.120;2024-02-14T07:44:26;98414.06;;;1.91;74.13
85319;BME280;75722;49.004;12.120;2024-02-14T07:46:52;98406.56;;;1.85;73.98
85319;BME280;75722;49.004;12.120;2024-02-14T07:49:18;98410.78;;;1.99;74.37
85319;BME280;75722;49.004;12.120;2024-02-14T07:51:44;98419.88;;;2.08;73.48
85319;BME280;75722;49.004;12.120;2024-02-14T07:54:09;98428.97;;;2.05;73.14
85319;BME280;75722;49.004;12.120;2024-02-14T07:56:35;98429.44;;;2.11;73.34
85319;BME280;75722;49.004;12.120;2024-02-14T07:59:00;98429.66;;;2.19;72.64
85319;BME280;75722;49.004;12.120;2024-02-14T08:01:25;98419.94;;;2.18;73.19
85319;BME280;75722;49.004;12.120;2024-02-14T08:03:51;98426.53;;;2.14;72.68
85319;BME280;75722;49.004;12.120;2024-02-14T08:06:17;98421.09;;;2.37;73.53
85319;BME280;75722;49.004;12.120;2024-02-14T08:08:42;98422.41;;;2.85;71.58
85319;BME280;75722;49.004;12.120;2024-02-14T08:11:09;98424.72;;;2.90;70.96
85319;BME280;75722;49.004;12.120;2024-02-14T08:13:34;98418.22;;;3.14;71.62
85319;BME280;75722;49.004;12.120;2024-02-14T08:16:00;98417.44;;;3.02;70.21
85319;BME280;75722;49.004;12.120;2024-02-14T08:18:25;98419.22;;;2.91;71.42
85319;BME280;75722;49.004;12.120;2024-02-14T08:20:52;98412.09;;;3.02;70.81
85319;BME280;75722;49.004;12.120;2024-02-14T08:23:17;98415.50;;;3.04;70.68
85319;BME280;75722;49.004;12.120;2024-02-14T08:25:43;98406.81;;;2.90;70.29
85319;BME280;75722;49.004;12.120;2024-02-14T08:28:09;98399.91;;;3.19;69.80
85319;BME280;75722;49.004;12.120;2024-02-14T08:30:35;98399.16;;;3.38;69.76
85319;BME280;75722;49.004;12.120;2024-02-14T08:33:00;98406.53;;;3.97;68.19
85319;BME280;75722;49.004;12.120;2024-02-14T08:35:25;98397.16;;;3.81;67.49
85319;BME280;75722;49.004;12.120;2024-02-14T08:37:51;98394.84;;;3.47;68.89
85319;BME280;75722;49.004;12.120;2024-02-14T08:40:16;98397.06;;;3.42;69.55
85319;BME280;75722;49.004;12.120;2024-02-14T08:42:42;98411.47;;;3.51;69.11
85319;BME280;75722;49.004;12.120;2024-02-14T08:45:08;98406.78;;;3.84;70.17
85319;BME280;75722;49.004;12.120;2024-02-14T08:47:34;98399.91;;;4.21;68.57
85319;BME280;75722;49.004;12.120;2024-02-14T08:49:59;98397.63;;;4.26;67.14
85319;BME280;75722;49.004;12.120;2024-02-14T08:52:25;98400.28;;;4.66;67.63
85319;BME280;75722;49.004;12.120;2024-02-14T08:54:51;98396.31;;;4.90;65.97
85319;BME280;75722;49.004;12.120;2024-02-14T08:57:16;98389.38;;;5.35;64.55
85319;BME280;75722;49.004;12.120;2024-02-14T08:59:43;98391.34;;;6.35;62.31
85319;BME280;75722;49.004;12.120;2024-02-14T09:02:12;98379.88;;;7.66;58.06
85319;BME280;75722;49.004;12.120;2024-02-14T09:04:39;98397.72;;;7.24;60.24
85319;BME280;75722;49.004;12.120;2024-02-14T09:07:04;98407.22;;;7.10;59.60
85319;BME280;75722;49.004;12.120;2024-02-14T09:09:29;98407.91;;;7.12;59.05
85319;BME280;75722;49.004;12.120;2024-02-14T09:11:55;98421.91;;;6.34;60.11
85319;BME280;75722;49.004;12.120;2024-02-14T09:14:20;98428.50;;;5.75;62.35
85319;BME280;75722;49.004;12.120;2024-02-14T09:16:45;98435.88;;;5.35;62.93
85319;BME280;75722;49.004;12.120;2024-02-14T09:19:12;98425.78;;;5.09;64.29
85319;BME280;75722;49.004;12.120;2024-02-14T09:21:38;98423.06;;;5.19;64.27
85319;BME280;75722;49.004;12.120;2024-02-14T09:24:04;98425.19;;;5.25;64.14
85319;BME280;75722;49.004;12.120;2024-02-14T09:26:30;98423.44;;;4.86;66.05
85319;BME280;75722;49.004;12.120;2024-02-14T09:28:55;98428.13;;;5.32;64.66
85319;BME280;75722;49.004;12.120;2024-02-14T09:31:21;98422.28;;;5.47;64.08
85319;BME280;75722;49.004;12.120;2024-02-14T09:33:47;98415.28;;;5.26;65.21
85319;BME280;75722;49.004;12.120;2024-02-14T09:36:14;98412.75;;;5.14;64.95
85319;BME280;75722;49.004;12.120;2024-02-14T09:38:40;98408.81;;;5.09;66.37
85319;BME280;75722;49.004;12.120;2024-02-14T09:41:29;98403.88;;;5.52;65.16
85319;BME280;75722;49.004;12.120;2024-02-14T09:43:58;98411.00;;;5.61;65.04
85319;BME280;75722;49.004;12.120;2024-02-14T09:46:24;98412.25;;;6.23;63.78
85319;BME280;75722;49.004;12.120;2024-02-14T09:48:53;98415.09;;;6.58;62.11
85319;BME280;75722;49.004;12.120;2024-02-14T09:51:19;98425.91;;;6.12;64.37
85319;BME280;75722;49.004;12.120;2024-02-14T09:53:44;98420.16;;;6.25;64.03
85319;BME280;75722;49.004;12.120;2024-02-14T09:56:11;98422.91;;;6.15;64.20
85319;BME280;75722;49.004;12.120;2024-02-14T09:58:42;98421.47;;;5.93;64.57
85319;BME280;75722;49.004;12.120;2024-02-14T10:01:07;98421.75;;;6.18;64.06
85319;BME280;75722;49.004;12.120;2024-02-14T10:03:33;98418.41;;;6.34;64.65
85319;BME280;75722;49.004;12.120;2024-02-14T10:06:00;98419.16;;;6.08;64.00
85319;BME280;75722;49.004;12.120;2024-02-14T10:08:26;98415.16;;;6.12;65.99
85319;BME280;75722;49.004;12.120;2024-02-14T10:10:51;98416.97;;;6.11;65.54
85319;BME280;75722;49.004;12.120;2024-02-14T10:13:17;98402.94;;;6.54;65.77
85319;BME280;75722;49.004;12.120;2024-02-14T10:15:43;98412.94;;;6.44;65.49
85319;BME280;75722;49.004;12.120;2024-02-14T10:18:08;98416.88;;;6.31;64.87
85319;BME280;75722;49.004;12.120;2024-02-14T10:20:35;98416.31;;;6.27;64.97
85319;BME280;75722;49.004;12.120;2024-02-14T10:23:07;98423.94;;;6.32;64.42
85319;BME280;75722;49.004;12.120;2024-02-14T10:25:37;98412.94;;;6.25;65.15
85319;BME280;75722;49.004;12.120;2024-02-14T10:28:06;98418.16;;;6.45;64.56
85319;BME280;75722;49.004;12.120;2024-02-14T10:30:33;98412.53;;;6.75;63.36
85319;BME280;75722;49.004;12.120;2024-02-14T10:32:59;98406.72;;;7.14;63.21
85319;BME280;75722;49.004;12.120;2024-02-14T10:35:25;98397.59;;;7.34;61.83
85319;BME280;75722;49.004;12.120;2024-02-14T10:37:50;98406.84;;;7.04;62.99
85319;BME280;75722;49.004;12.120;2024-02-14T10:40:15;98421.91;;;6.34;63.91
85319;BME280;75722;49.004;12.120;2024-02-14T10:42:41;98431.47;;;6.00;65.12
85319;BME280;75722;49.004;12.120;2024-02-14T10:45:06;98420.69;;;5.82;65.95
85319;BME280;75722;49.004;12.120;2024-02-14T10:47:35;98420.13;;;5.78;66.78
85319;BME280;75722;49.004;12.120;2024-02-14T10:50:06;98413.63;;;5.81;66.24
85319;BME280;75722;49.004;12.120;2024-02-14T10:52:34;98414.38;;;5.73;66.94
85319;BME280;75722;49.004;12.120;2024-02-14T10:55:02;98414.31;;;5.83;67.31
85319;BME280;75722;49.004;12.120;2024-02-14T10:57:28;98410.44;;;5.68;68.20
85319;BME280;75722;49.004;12.120;2024-02-14T10:59:54;98416.69;;;5.86;68.08
85319;BME280;75722;49.004;12.120;2024-02-14T11:02:21;98407.47;;;5.89;67.77
85319;BME280;75722;49.004;12.120;2024-02-14T11:04:47;98399.03;;;5.56;68.42
85319;BME280;75722;49.004;12.120;2024-02-14T11:07:13;98401.06;;;5.44;68.34
85319;BME280;75722;49.004;12.120;2024-02-14T11:09:40;98406.88;;;5.77;67.34
85319;BME280;75722;49.004;12.120;2024-02-14T11:12:08;98394.94;;;6.08;66.53
85319;BME280;75722;49.004;12.120;2024-02-14T11:14:35;98401.31;;;5.78;67.32
85319;BME280;75722;49.004;12.120;2024-02-14T11:17:02;98396.72;;;5.89;67.23
85319;BME280;75722;49.004;12.120;2024-02-14T11:19:33;98389.97;;;6.03;66.79
85319;BME280;75722;49.004;12.120;2024-02-14T11:22:10;98392.25;;;6.08;66.44
85319;BME280;75722;49.004;12.120;2024-02-14T11:24:36;98391.19;;;6.19;65.78
85319;BME280;75722;49.004;12.120;2024-02-14T11:27:02;98391.59;;;6.24;66.44
85319;BME280;75722;49.004;12.120;2024-02-14T11:29:29;98381.72;;;6.14;67.17
85319;BME280;75722;49.004;12.120;2024-02-14T11:32:01;98375.38;;;6.15;67.98
85319;BME280;75722;49.004;12.120;2024-02-14T11:34:31;98376.97;;;6.45;66.77
85319;BME280;75722;49.004;12.120;2024-02-14T11:36:58;98372.47;;;6.72;65.95
85319;BME280;75722;49.004;12.120;2024-02-14T11:39:25;98365.63;;;6.33;66.33
85319;BME280;75722;49.004;12.120;2024-02-14T11:41:50;98372.50;;;6.53;67.37
85319;BME280;75722;49.004;12.120;2024-02-14T11:44:19;98363.78;;;7.39;65.14
85319;BME280;75722;49.004;12.120;2024-02-14T11:46:47;98355.91;;;8.23;62.92
85319;BME280;75722;49.004;12.120;2024-02-14T11:49:13;98362.91;;;9.32;59.25
85319;BME280;75722;49.004;12.120;2024-02-14T11:51:38;98367.91;;;9.83;57.34
85319;BME280;75722;49.004;12.120;2024-02-14T11:54:06;98363.63;;;9.09;59.40
85319;BME280;75722;49.004;12.120;2024-02-14T11:56:38;98370.25;;;8.40;59.72
85319;BME280;75722;49.004;12.120;2024-02-14T11:59:05;98368.69;;;7.95;62.95
85319;BME280;75722;49.004;12.120;2024-02-14T12:01:35;98369.28;;;7.73;63.38
85319;BME280;75722;49.004;12.120;2024-02-14T12:04:02;98364.72;;;7.73;64.01
85319;BME280;75722;49.004;12.120;2024-02-14T12:06:29;98368.63;;;7.79;63.67
85319;BME280;75722;49.004;12.120;2024-02-14T12:08:57;98360.69;;;7.69;63.91
85319;BME280;75722;49.004;12.120;2024-02-14T12:11:27;98366.19;;;7.51;64.17
85319;BME280;75722;49.004;12.120;2024-02-14T12:13:53;98363.72;;;7.23;64.98
85319;BME280;75722;49.004;12.120;2024-02-14T12:16:21;98356.28;;;7.25;66.07
85319;BME280;75722;49.004;12.120;2024-02-14T12:18:47;98364.06;;;7.28;66.53
85319;BME280;75722;49.004;12.120;2024-02-14T12:21:13;98358.13;;;6.89;66.50
85319;BME280;75722;49.004;12.120;2024-02-14T12:23:38;98365.63;;;7.04;66.32
85319;BME280;75722;49.004;12.120;2024-02-14T12:26:04;98361.63;;;6.90;67.81
85319;BME280;75722;49.004;12.120;2024-02-14T12:28:31;98372.75;;;6.87;67.91
85319;BME280;75722;49.004;12.120;2024-02-14T12:30:57;98358.06;;;7.08;66.77
85319;BME280;75722;49.004;12.120;2024-02-14T12:33:23;98355.91;;;7.11;66.93
85319;BME280;75722;49.004;12.120;2024-02-14T12:35:50;98363.50;;;7.24;66.72
85319;BME280;75722;49.004;12.120;2024-02-14T12:38:17;98353.50;;;7.43;66.32
85319;BME280;75722;49.004;12.120;2024-02-14T12:40:43;98358.41;;;7.48;65.43
85319;BME280;75722;49.004;12.120;2024-02-14T12:43:15;98365.75;;;7.29;65.28
85319;BME280;75722;49.004;12.120;2024-02-14T12:45:41;98357.53;;;7.82;64.43
85319;BME280;75722;49.004;12.120;2024-02-14T12:48:08;98347.44;;;7.92;64.66
85319;BME280;75722;49.004;12.120;2024-02-14T12:50:35;98352.19;;;8.15;64.58